Time;durP1;ratioP1;P1;durP2;ratioP2;P2;SDS_P1;SDS_P2;PMS_P1;PMS_P2;Temp;Humidity;BMP_temperature;BMP_pressure;BME280_temperature;BME280_humidity;BME280_pressure;Samples;Min_cycle;Max_cycle;Signal;HPM_P1;HPM_P2
2023/08/10 00:00:42;;;;;;;;;;;;;;;;;;5053204;28;20058;-82
2023/08/10 00:03:09;;;;;;;;;;;;;;;;;;5060111;28;19924;-77
2023/08/10 00:05:35;;;;;;;;;;;;;;;;;;5041486;28;20200;-79
2023/08/10 00:08:00;;;;;;;;;;;;;;;;;;5059449;28;20410;-76
2023/08/10 00:10:26;;;;;;;;;;;;;;;;;;5063985;28;20416;-77
2023/08/10 00:12:52;;;;;;;;;;;;;;;;;;5062080;28;20220;-77
2023/08/10 00:15:18;;;;;;;;;;;;;;;;;;5056023;28;20737;-77
2023/08/10 00:17:44;;;;;;;;;;;;;;;;;;5064829;28;19928;-83
2023/08/10 00:20:10;;;;;;;;;;;;;;;;;;5056172;28;19975;-78
2023/08/10 00:22:36;;;;;;;;;;;;;;;;;;5066042;28;20393;-78
2023/08/10 00:25:03;;;;;;;;;;;;;;;;;;5067211;28;19928;-77
2023/08/10 00:27:29;;;;;;;;;;;;;;;;;;5085960;28;19932;-81
2023/08/10 00:29:55;;;;;;;;;;;;;;;;;;5061630;28;19975;-77
2023/08/10 00:32:21;;;;;;;;;;;;;;;;;;5091083;28;19928;-78
2023/08/10 00:34:47;;;;;;;;;;;;;;;;;;5063873;28;19928;-82
2023/08/10 00:37:13;;;;;;;;;;;;;;;;;;5063090;28;19924;-79
2023/08/10 00:39:39;;;;;;;;;;;;;;;;;;5064892;28;19987;-82
2023/08/10 00:42:05;;;;;;;;;;;;;;;;;;5065314;28;19964;-83
2023/08/10 00:44:31;;;;;;;;;;;;;;;;;;5067840;28;19935;-80
2023/08/10 00:46:57;;;;;;;;;;;;;;;;;;5069921;28;20342;-80
2023/08/10 00:49:23;;;;;;;;;;;;;;;;;;5063323;28;20032;-81
2023/08/10 00:51:49;;;;;;;;;;;;;;;;;;5065341;28;20680;-81
2023/08/10 00:54:15;;;;;;;;;;;;;;;;;;5058818;28;19929;-78
2023/08/10 00:56:41;;;;;;;;;;;;;;;;;;5063110;28;20720;-77
2023/08/10 00:59:07;;;;;;;;;;;;;;;;;;5063701;28;19928;-81
2023/08/10 01:01:33;;;;;;;;;;;;;;;;;;5095703;28;19966;-81
2023/08/10 01:03:59;;;;;;;;;;;;;;;;;;5056765;28;19929;-79
2023/08/10 01:06:25;;;;;;;;;;;;;;;;;;5035971;28;19928;-78
2023/08/10 01:08:51;;;;;;;;;;;;;;;;;;5025064;28;19925;-78
2023/08/10 01:11:17;;;;;;;;;;;;;;;;;;5075499;28;19971;-80
2023/08/10 01:13:43;;;;;;;;;;;;;;;;;;5074755;28;19928;-78
2023/08/10 01:16:09;;;;;;;;;;;;;;;;;;5037694;28;20387;-82
2023/08/10 01:18:35;;;;;;;;;;;;;;;;;;5025745;28;20099;-78
2023/08/10 01:21:01;;;;;;;;;;;;;;;;;;5017849;28;19995;-80
2023/08/10 01:23:26;;;;;;;;;;;;;;;;;;5026651;28;19925;-79
2023/08/10 01:25:52;;;;;;;;;;;;;;;;;;5039688;28;20015;-84
2023/08/10 01:28:18;;;;;;;;;;;;;;;;;;5043158;28;19933;-79
2023/08/10 01:30:44;;;;;;;;;;;;;;;;;;5073234;28;19928;-79
2023/08/10 01:33:10;;;;;;;;;;;;;;;;;;5026213;28;19939;-81
2023/08/10 01:35:36;;;;;;;;;;;;;;;;;;5015434;28;20277;-78
2023/08/10 01:38:02;;;;;;;;;;;;;;;;;;5036233;28;19936;-79
2023/08/10 01:40:28;;;;;;;;;;;;;;;;;;5041734;28;19925;-80
2023/08/10 01:42:54;;;;;;;;;;;;;;;;;;5042340;28;19925;-80
2023/08/10 01:45:20;;;;;;;;;;;;;;;;;;5042016;28;20348;-78
2023/08/10 01:47:46;;;;;;;;;;;;;;;;;;5039224;28;19924;-81
2023/08/10 01:50:12;;;;;;;;;;;;;;;;;;5041033;28;19929;-80
2023/08/10 01:52:38;;;;;;;;;;;;;;;;;;5041852;28;20345;-83
2023/08/10 01:55:04;;;;;;;;;;;;;;;;;;5055305;28;19924;-83
2023/08/10 01:57:30;;;;;;;;;;;;;;;;;;5024155;28;19928;-77
2023/08/10 01:59:55;;;;;;;;;;;;;;;;;;5040395;28;19944;-78
2023/08/10 02:02:21;;;;;;;;;;;;;;;;;;5043309;28;19971;-82
2023/08/10 02:04:47;;;;;;;;;;;;;;;;;;5058230;28;20383;-82
2023/08/10 02:07:13;;;;;;;;;;;;;;;;;;5043341;28;20422;-79
2023/08/10 02:09:40;;;;;;;;;;;;;;;;;;5043606;28;20379;-77
2023/08/10 02:12:05;;;;;;;;;;;;;;;;;;5046570;28;19934;-80
2023/08/10 02:14:31;;;;;;;;;;;;;;;;;;5051225;28;19929;-79
2023/08/10 02:16:57;;;;;;;;;;;;;;;;;;5044124;28;21983;-77
2023/08/10 02:19:23;;;;;;;;;;;;;;;;;;5044544;28;19934;-79
2023/08/10 02:21:49;;;;;;;;;;;;;;;;;;5036380;28;19935;-79
2023/08/10 02:24:15;;;;;;;;;;;;;;;;;;5044793;28;19952;-79
2023/08/10 02:26:41;;;;;;;;;;;;;;;;;;5045359;28;19939;-78
2023/08/10 02:29:07;;;;;;;;;;;;;;;;;;5043299;28;19925;-78
2023/08/10 02:31:33;;;;;;;;;;;;;;;;;;5044390;28;19933;-77
2023/08/10 02:33:59;;;;;;;;;;;;;;;;;;5054892;28;20435;-77
2023/08/10 02:36:24;;;;;;;;;;;;;;;;;;5024587;28;19935;-84
2023/08/10 02:38:50;;;;;;;;;;;;;;;;;;5053194;28;19928;-85
2023/08/10 02:41:16;;;;;;;;;;;;;;;;;;5032498;28;19944;-79
2023/08/10 02:43:42;;;;;;;;;;;;;;;;;;5052679;28;20368;-85
2023/08/10 02:46:08;;;;;;;;;;;;;;;;;;5044685;28;19933;-87
2023/08/10 02:48:34;;;;;;;;;;;;;;;;;;5039793;28;19939;-86
2023/08/10 02:51:00;;;;;;;;;;;;;;;;;;5060709;28;19935;-84
2023/08/10 02:53:26;;;;;;;;;;;;;;;;;;5044193;28;20419;-81
2023/08/10 02:55:52;;;;;;;;;;;;;;;;;;5041298;28;19940;-86
2023/08/10 02:58:18;;;;;;;;;;;;;;;;;;5050013;28;19983;-86
2023/08/10 03:00:44;;;;;;;;;;;;;;;;;;5044404;28;19985;-87
2023/08/10 03:03:09;;;;;;;;;;;;;;;;;;5052688;28;19929;-81
2023/08/10 03:05:35;;;;;;;;;;;;;;;;;;5080379;28;20322;-84
2023/08/10 03:08:01;;;;;;;;;;;;;;;;;;5097061;28;19968;-85
2023/08/10 03:10:27;;;;;;;;;;;;;;;;;;5096774;27;19934;-85
2023/08/10 03:12:53;;;;;;;;;;;;;;;;;;5062493;28;19924;-82
2023/08/10 03:15:19;;;;;;;;;;;;;;;;;;5064050;28;20344;-84
2023/08/10 03:17:45;;;;;;;;;;;;;;;;;;5066198;28;20685;-84
2023/08/10 03:20:16;;;;;;;;;;;;;;;;;;5066962;28;19967;-84
2023/08/10 03:22:42;;;;;;;;;;;;;;;;;;5111154;27;19928;-80
2023/08/10 03:25:08;;;;;;;;;;;;;;;;;;5066369;28;19928;-79
2023/08/10 03:27:34;;;;;;;;;;;;;;;;;;5074009;28;20371;-85
2023/08/10 03:30:00;;;;;;;;;;;;;;;;;;5065245;28;20034;-86
2023/08/10 03:32:26;;;;;;;;;;;;;;;;;;5062802;28;19928;-81
2023/08/10 03:34:52;;;;;;;;;;;;;;;;;;5064584;28;19958;-82
2023/08/10 03:37:18;;;;;;;;;;;;;;;;;;5063201;28;19924;-82
2023/08/10 03:39:43;;;;;;;;;;;;;;;;;;5064147;28;19932;-84
2023/08/10 03:42:09;;;;;;;;;;;;;;;;;;5064557;28;20023;-84
2023/08/10 03:44:35;;;;;;;;;;;;;;;;;;5097114;28;20297;-83
2023/08/10 03:47:01;;;;;;;;;;;;;;;;;;5062032;28;19928;-80
2023/08/10 03:49:27;;;;;;;;;;;;;;;;;;5062451;28;19928;-79
2023/08/10 03:51:53;;;;;;;;;;;;;;;;;;5061914;28;19931;-83
2023/08/10 03:54:19;;;;;;;;;;;;;;;;;;5060632;28;20857;-86
2023/08/10 03:56:45;;;;;;;;;;;;;;;;;;5062054;28;19973;-86
2023/08/10 03:59:11;;;;;;;;;;;;;;;;;;5094336;28;19927;-78
2023/08/10 04:01:37;;;;;;;;;;;;;;;;;;5093864;28;19967;-85
2023/08/10 04:04:03;;;;;;;;;;;;;;;;;;5046133;28;19928;-85
2023/08/10 04:06:29;;;;;;;;;;;;;;;;;;5044930;28;19930;-85
2023/08/10 04:08:55;;;;;;;;;;;;;;;;;;5061302;28;20457;-84
2023/08/10 04:11:21;;;;;;;;;;;;;;;;;;5060480;28;20384;-85
2023/08/10 04:13:47;;;;;;;;;;;;;;;;;;5061372;28;19981;-80
2023/08/10 04:16:13;;;;;;;;;;;;;;;;;;5095022;28;20346;-84
2023/08/10 04:18:39;;;;;;;;;;;;;;;;;;5059313;28;19931;-86
2023/08/10 04:21:05;;;;;;;;;;;;;;;;;;5046476;28;19943;-86
2023/08/10 04:23:30;;;;;;;;;;;;;;;;;;5062335;28;20291;-85
2023/08/10 04:25:56;;;;;;;;;;;;;;;;;;5062783;28;19932;-85
2023/08/10 04:28:22;;;;;;;;;;;;;;;;;;5060198;28;20032;-82
2023/08/10 04:30:48;;;;;;;;;;;;;;;;;;5094881;28;19932;-86
2023/08/10 04:33:14;;;;;;;;;;;;;;;;;;5059270;28;19924;-81
2023/08/10 04:35:40;;;;;;;;;;;;;;;;;;5044840;28;19931;-83
2023/08/10 04:38:06;;;;;;;;;;;;;;;;;;5061118;28;20024;-84
2023/08/10 04:40:32;;;;;;;;;;;;;;;;;;5096283;28;20025;-84
2023/08/10 04:42:58;;;;;;;;;;;;;;;;;;5084193;28;20416;-86
2023/08/10 04:45:24;;;;;;;;;;;;;;;;;;5060467;28;19928;-83
2023/08/10 04:47:50;;;;;;;;;;;;;;;;;;5088445;28;19932;-84
2023/08/10 04:50:16;;;;;;;;;;;;;;;;;;5068688;28;19932;-85
2023/08/10 04:52:42;;;;;;;;;;;;;;;;;;5064439;28;19988;-84
2023/08/10 04:55:09;;;;;;;;;;;;;;;;;;5079253;28;20368;-85
2023/08/10 04:57:36;;;;;;;;;;;;;;;;;;5044598;28;19929;-82
2023/08/10 05:00:08;;;;;;;;;;;;;;;;;;5045341;28;20019;-77
2023/08/10 05:02:34;;;;;;;;;;;;;;;;;;5061925;28;19928;-77
2023/08/10 05:05:00;;;;;;;;;;;;;;;;;;5060828;28;20402;-79
2023/08/10 05:07:27;;;;;;;;;;;;;;;;;;5059460;28;19928;-79
2023/08/10 05:09:53;;;;;;;;;;;;;;;;;;5080608;28;19959;-84
2023/08/10 05:12:19;;;;;;;;;;;;;;;;;;5061907;28;20478;-86
2023/08/10 05:14:45;;;;;;;;;;;;;;;;;;5090210;28;19943;-84
2023/08/10 05:17:11;;;;;;;;;;;;;;;;;;5062223;28;19995;-86
2023/08/10 05:19:36;;;;;;;;;;;;;;;;;;5060204;28;20037;-83
2023/08/10 05:22:02;;;;;;;;;;;;;;;;;;5052740;28;20011;-77
2023/08/10 05:24:28;;;;;;;;;;;;;;;;;;5064364;28;19928;-78
2023/08/10 05:26:54;;;;;;;;;;;;;;;;;;5081162;28;20041;-81
2023/08/10 05:29:20;;;;;;;;;;;;;;;;;;5091925;28;19932;-80
2023/08/10 05:31:46;;;;;;;;;;;;;;;;;;5083484;28;20374;-80
2023/08/10 05:34:12;;;;;;;;;;;;;;;;;;5077036;28;19964;-81
2023/08/10 05:36:38;;;;;;;;;;;;;;;;;;5067949;28;19936;-79
2023/08/10 05:39:04;;;;;;;;;;;;;;;;;;5060676;28;19924;-87
2023/08/10 05:41:30;;;;;;;;;;;;;;;;;;5064242;28;19958;-79
2023/08/10 05:43:56;;;;;;;;;;;;;;;;;;5067012;28;19971;-82
2023/08/10 05:46:22;;;;;;;;;;;;;;;;;;5061555;28;19928;-80
2023/08/10 05:48:49;;;;;;;;;;;;;;;;;;5097357;28;19927;-85
2023/08/10 05:51:14;;;;;;;;;;;;;;;;;;5064713;28;20453;-81
2023/08/10 05:53:41;;;;;;;;;;;;;;;;;;5048013;28;20347;-81
2023/08/10 05:56:08;;;;;;;;;;;;;;;;;;5051728;28;19928;-83
2023/08/10 05:58:34;;;;;;;;;;;;;;;;;;5064421;28;20355;-80
2023/08/10 06:01:01;;;;;;;;;;;;;;;;;;5033624;28;19940;-77
2023/08/10 06:03:27;;;;;;;;;;;;;;;;;;5040002;28;19932;-78
2023/08/10 06:05:53;;;;;;;;;;;;;;;;;;5057308;28;19932;-83
2023/08/10 06:08:19;;;;;;;;;;;;;;;;;;5060411;28;20499;-80
2023/08/10 06:10:49;;;;;;;;;;;;;;;;;;5042889;28;19982;-81
2023/08/10 06:13:15;;;;;;;;;;;;;;;;;;5090839;28;20322;-80
2023/08/10 06:15:41;;;;;;;;;;;;;;;;;;5063339;28;19938;-79
2023/08/10 06:18:06;;;;;;;;;;;;;;;;;;5073235;28;19928;-81
2023/08/10 06:20:33;;;;;;;;;;;;;;;;;;5050604;28;20368;-81
2023/08/10 06:22:59;;;;;;;;;;;;;;;;;;5072517;28;19932;-79
2023/08/10 06:25:26;;;;;;;;;;;;;;;;;;5091742;27;20303;-82
2023/08/10 06:27:51;;;;;;;;;;;;;;;;;;5060092;28;20056;-84
2023/08/10 06:30:17;;;;;;;;;;;;;;;;;;5060704;28;20474;-83
2023/08/10 06:32:43;;;;;;;;;;;;;;;;;;5058870;28;19928;-83
2023/08/10 06:35:09;;;;;;;;;;;;;;;;;;5058381;28;20020;-76
2023/08/10 06:37:35;;;;;;;;;;;;;;;;;;5057269;28;20028;-83
2023/08/10 06:40:06;;;;;;;;;;;;;;;;;;5056419;28;19943;-85
2023/08/10 06:42:33;;;;;;;;;;;;;;;;;;5044219;28;20481;-83
2023/08/10 06:44:59;;;;;;;;;;;;;;;;;;5075167;28;20387;-83
2023/08/10 06:47:25;;;;;;;;;;;;;;;;;;5093155;27;19975;-82
2023/08/10 06:49:51;;;;;;;;;;;;;;;;;;5056755;28;20427;-77
2023/08/10 06:52:17;;;;;;;;;;;;;;;;;;5059359;28;19928;-80
2023/08/10 06:54:43;;;;;;;;;;;;;;;;;;5035871;28;19924;-78
2023/08/10 06:57:09;;;;;;;;;;;;;;;;;;5059718;28;19994;-82
2023/08/10 06:59:34;;;;;;;;;;;;;;;;;;5046929;28;19959;-80
2023/08/10 07:02:01;;;;;;;;;;;;;;;;;;5076300;28;19928;-84
2023/08/10 07:04:27;;;;;;;;;;;;;;;;;;5078258;28;19928;-79
2023/08/10 07:06:54;;;;;;;;;;;;;;;;;;5059779;28;19924;-77
2023/08/10 07:09:22;;;;;;;;;;;;;;;;;;5062037;28;20039;-83
2023/08/10 07:11:48;;;;;;;;;;;;;;;;;;5064170;28;19939;-83
2023/08/10 07:14:14;;;;;;;;;;;;;;;;;;5073258;28;19967;-79
2023/08/10 07:16:40;;;;;;;;;;;;;;;;;;5059919;28;20430;-84
2023/08/10 07:19:06;;;;;;;;;;;;;;;;;;5076937;28;19959;-79
2023/08/10 07:21:32;;;;;;;;;;;;;;;;;;5058603;28;20058;-82
2023/08/10 07:23:58;;;;;;;;;;;;;;;;;;5062781;28;19974;-77
2023/08/10 07:26:24;;;;;;;;;;;;;;;;;;5058160;28;20534;-75
2023/08/10 07:28:50;;;;;;;;;;;;;;;;;;5058608;28;19928;-75
2023/08/10 07:31:16;;;;;;;;;;;;;;;;;;5075606;28;19932;-84
2023/08/10 07:33:41;;;;;;;;;;;;;;;;;;5058185;28;20273;-79
2023/08/10 07:36:07;;;;;;;;;;;;;;;;;;5056862;28;19927;-77
2023/08/10 07:38:33;;;;;;;;;;;;;;;;;;5057083;28;19928;-83
2023/08/10 07:40:59;;;;;;;;;;;;;;;;;;5055884;28;20411;-81
2023/08/10 07:43:25;;;;;;;;;;;;;;;;;;5054518;28;20311;-82
2023/08/10 07:45:51;;;;;;;;;;;;;;;;;;5050521;28;20018;-75
2023/08/10 07:48:17;;;;;;;;;;;;;;;;;;5056241;28;19928;-81
2023/08/10 07:50:43;;;;;;;;;;;;;;;;;;5052795;28;19966;-83
2023/08/10 07:53:09;;;;;;;;;;;;;;;;;;5053995;28;19931;-79
2023/08/10 07:55:35;;;;;;;;;;;;;;;;;;5086022;28;20033;-76
2023/08/10 07:58:01;;;;;;;;;;;;;;;;;;5053511;28;19928;-77
2023/08/10 08:00:27;;;;;;;;;;;;;;;;;;5054085;28;20370;-76
2023/08/10 08:02:53;;;;;;;;;;;;;;;;;;5057236;28;19935;-76
2023/08/10 08:05:19;;;;;;;;;;;;;;;;;;5050640;28;20699;-77
2023/08/10 08:07:45;;;;;;;;;;;;;;;;;;5072521;28;19927;-76
2023/08/10 08:10:11;;;;;;;;;;;;;;;;;;5069913;28;19936;-76
2023/08/10 08:12:37;;;;;;;;;;;;;;;;;;5035717;28;19935;-77
2023/08/10 08:15:03;;;;;;;;;;;;;;;;;;5056888;28;19932;-81
2023/08/10 08:17:29;;;;;;;;;;;;;;;;;;5071217;28;19931;-83
2023/08/10 08:19:57;;;;;;;;;;;;;;;;;;5066228;28;20019;-85
2023/08/10 08:22:23;;;;;;;;;;;;;;;;;;5071417;28;19974;-82
2023/08/10 08:24:51;;;;;;;;;;;;;;;;;;5055638;28;19932;-81
2023/08/10 08:27:17;;;;;;;;;;;;;;;;;;5089933;28;20407;-83
2023/08/10 08:29:43;;;;;;;;;;;;;;;;;;5033205;28;19973;-80
2023/08/10 08:32:09;;;;;;;;;;;;;;;;;;5058039;28;19924;-82
2023/08/10 08:34:36;;;;;;;;;;;;;;;;;;5060227;28;19934;-81
2023/08/10 08:37:02;;;;;;;;;;;;;;;;;;5057220;28;20282;-83
2023/08/10 08:39:28;;;;;;;;;;;;;;;;;;5093882;28;19924;-84
2023/08/10 08:41:53;;;;;;;;;;;;;;;;;;5058868;28;20007;-80
2023/08/10 08:44:19;;;;;;;;;;;;;;;;;;5057074;28;19938;-82
2023/08/10 08:46:45;;;;;;;;;;;;;;;;;;5058088;28;20321;-83
2023/08/10 08:49:11;;;;;;;;;;;;;;;;;;5054471;28;20008;-79
2023/08/10 08:51:37;;;;;;;;;;;;;;;;;;5076323;28;19924;-82
2023/08/10 08:54:03;;;;;;;;;;;;;;;;;;5045883;28;19931;-84
2023/08/10 08:56:29;;;;;;;;;;;;;;;;;;5092552;28;20349;-81
2023/08/10 08:58:55;;;;;;;;;;;;;;;;;;5066428;28;19978;-86
2023/08/10 09:01:21;;;;;;;;;;;;;;;;;;5063472;28;19928;-80
2023/08/10 09:03:47;;;;;;;;;;;;;;;;;;5064683;28;19966;-79
2023/08/10 09:06:13;;;;;;;;;;;;;;;;;;5058790;28;19928;-82
2023/08/10 09:08:39;;;;;;;;;;;;;;;;;;5063615;28;19935;-79
2023/08/10 09:11:05;;;;;;;;;;;;;;;;;;5095951;28;19930;-80
2023/08/10 09:13:30;;;;;;;;;;;;;;;;;;5092629;27;19928;-81
2023/08/10 09:15:56;;;;;;;;;;;;;;;;;;5061275;28;20077;-81
2023/08/10 09:18:22;;;;;;;;;;;;;;;;;;5061887;28;20352;-85
2023/08/10 09:20:49;;;;;;;;;;;;;;;;;;5060536;28;19932;-85
2023/08/10 09:23:16;;;;;;;;;;;;;;;;;;5063813;28;20026;-85
2023/08/10 09:25:43;;;;;;;;;;;;;;;;;;5062397;28;19924;-77
2023/08/10 09:28:09;;;;;;;;;;;;;;;;;;5044881;28;19928;-83
2023/08/10 09:30:35;;;;;;;;;;;;;;;;;;5094461;27;19928;-82
2023/08/10 09:35:39;;;;;;;;;;;;;;;;;;5072550;22;19932;-86
2023/08/10 09:38:05;;;;;;;;;;;;;;;;;;5063482;28;19925;-84
2023/08/10 09:40:31;;;;;;;;;;;;;;;;;;5046765;28;20730;-85
2023/08/10 09:42:57;;;;;;;;;;;;;;;;;;5047293;28;20372;-86
2023/08/10 09:45:23;;;;;;;;;;;;;;;;;;5062162;28;19928;-84
2023/08/10 09:47:49;;;;;;;;;;;;;;;;;;5064657;28;20666;-84
2023/08/10 09:50:15;;;;;;;;;;;;;;;;;;5063697;28;19939;-84
2023/08/10 09:52:49;;;;;;;;;;;;;;;;;;5060251;28;19951;-84
2023/08/10 09:55:18;;;;;;;;;;;;;;;;;;5048493;28;20371;-85
2023/08/10 09:57:44;;;;;;;;;;;;;;;;;;5062571;28;19924;-85
2023/08/10 10:00:15;;;;;;;;;;;;;;;;;;5048510;28;19924;-84
2023/08/10 10:02:41;;;;;;;;;;;;;;;;;;5046752;28;20020;-85
2023/08/10 10:05:08;;;;;;;;;;;;;;;;;;5061428;28;20020;-84
2023/08/10 10:07:34;;;;;;;;;;;;;;;;;;5060455;28;19977;-85
2023/08/10 10:10:00;;;;;;;;;;;;;;;;;;5062119;28;20032;-83
2023/08/10 10:12:25;;;;;;;;;;;;;;;;;;5060259;28;20638;-85
2023/08/10 10:14:51;;;;;;;;;;;;;;;;;;5040666;28;19967;-83
2023/08/10 10:17:20;;;;;;;;;;;;;;;;;;5058811;28;20082;-84
2023/08/10 10:19:46;;;;;;;;;;;;;;;;;;5060567;28;20492;-85
2023/08/10 10:22:12;;;;;;;;;;;;;;;;;;5044328;28;20372;-85
2023/08/10 10:24:38;;;;;;;;;;;;;;;;;;5059156;28;19982;-84
2023/08/10 10:27:05;;;;;;;;;;;;;;;;;;5057485;28;19935;-85
2023/08/10 10:29:31;;;;;;;;;;;;;;;;;;5054859;28;19932;-85
2023/08/10 10:31:57;;;;;;;;;;;;;;;;;;5059236;28;19982;-84
2023/08/10 10:34:24;;;;;;;;;;;;;;;;;;5061382;28;20350;-84
2023/08/10 10:36:49;;;;;;;;;;;;;;;;;;5057294;28;19932;-83
2023/08/10 10:39:15;;;;;;;;;;;;;;;;;;5061715;28;19963;-85
2023/08/10 10:41:42;;;;;;;;;;;;;;;;;;5059169;28;20554;-84
2023/08/10 10:44:08;;;;;;;;;;;;;;;;;;5064721;28;19928;-83
2023/08/10 10:46:35;;;;;;;;;;;;;;;;;;5064018;28;20344;-84
2023/08/10 10:49:00;;;;;;;;;;;;;;;;;;5048201;28;19925;-83
2023/08/10 10:51:26;;;;;;;;;;;;;;;;;;5053246;28;19985;-85
2023/08/10 10:53:53;;;;;;;;;;;;;;;;;;5072923;28;19936;-83
2023/08/10 10:56:19;;;;;;;;;;;;;;;;;;5048891;28;19932;-83
2023/08/10 10:58:45;;;;;;;;;;;;;;;;;;5063452;28;19928;-84
2023/08/10 11:01:11;;;;;;;;;;;;;;;;;;5051694;28;19986;-85
2023/08/10 11:03:37;;;;;;;;;;;;;;;;;;5062060;28;20334;-84
2023/08/10 11:06:03;;;;;;;;;;;;;;;;;;5057654;28;19924;-85
2023/08/10 11:08:29;;;;;;;;;;;;;;;;;;5046022;28;19928;-85
2023/08/10 11:10:56;;;;;;;;;;;;;;;;;;5062938;28;19928;-84
2023/08/10 11:13:24;;;;;;;;;;;;;;;;;;5040592;28;19943;-84
2023/08/10 11:15:50;;;;;;;;;;;;;;;;;;5061307;28;20697;-84
2023/08/10 11:18:16;;;;;;;;;;;;;;;;;;5057462;28;19928;-84
2023/08/10 11:20:42;;;;;;;;;;;;;;;;;;5059777;28;20022;-84
2023/08/10 11:23:08;;;;;;;;;;;;;;;;;;5061262;28;19931;-84
2023/08/10 11:25:34;;;;;;;;;;;;;;;;;;5059224;28;19928;-83
2023/08/10 11:28:00;;;;;;;;;;;;;;;;;;5045661;28;19924;-85
2023/08/10 11:30:26;;;;;;;;;;;;;;;;;;5046175;28;19929;-84
2023/08/10 11:32:52;;;;;;;;;;;;;;;;;;5056150;28;19928;-84
2023/08/10 11:35:18;;;;;;;;;;;;;;;;;;5057134;28;19932;-84
2023/08/10 11:37:44;;;;;;;;;;;;;;;;;;5057674;28;19929;-85
2023/08/10 11:40:15;;;;;;;;;;;;;;;;;;5055077;28;19939;-83
2023/08/10 11:42:41;;;;;;;;;;;;;;;;;;5044230;28;19924;-83
2023/08/10 11:45:07;;;;;;;;;;;;;;;;;;5057687;28;20347;-83
2023/08/10 11:47:33;;;;;;;;;;;;;;;;;;5059093;28;19931;-83
2023/08/10 11:49:59;;;;;;;;;;;;;;;;;;5062176;28;20886;-84
2023/08/10 11:52:24;;;;;;;;;;;;;;;;;;5062073;28;19933;-84
2023/08/10 11:54:52;;;;;;;;;;;;;;;;;;5047552;28;19943;-85
2023/08/10 11:57:18;;;;;;;;;;;;;;;;;;5061631;28;19932;-84
2023/08/10 11:59:44;;;;;;;;;;;;;;;;;;5059935;28;19981;-86
2023/08/10 12:02:10;;;;;;;;;;;;;;;;;;5060602;28;20401;-85
2023/08/10 12:04:36;;;;;;;;;;;;;;;;;;5058485;28;19928;-85
2023/08/10 12:07:02;;;;;;;;;;;;;;;;;;5059883;28;20386;-84
2023/08/10 12:09:28;;;;;;;;;;;;;;;;;;5061822;28;19932;-85
2023/08/10 12:11:54;;;;;;;;;;;;;;;;;;5048253;28;19935;-85
2023/08/10 12:14:20;;;;;;;;;;;;;;;;;;5043962;28;19928;-86
2023/08/10 12:16:46;;;;;;;;;;;;;;;;;;5061665;28;19920;-84
2023/08/10 12:19:12;;;;;;;;;;;;;;;;;;5059488;28;20403;-83
2023/08/10 12:21:38;;;;;;;;;;;;;;;;;;5053536;28;20392;-84
2023/08/10 12:24:03;;;;;;;;;;;;;;;;;;5053120;28;20008;-84
2023/08/10 12:26:29;;;;;;;;;;;;;;;;;;5044255;28;19974;-83
2023/08/10 12:28:55;;;;;;;;;;;;;;;;;;5053508;28;20299;-83
2023/08/10 12:31:21;;;;;;;;;;;;;;;;;;5059735;28;19993;-85
2023/08/10 12:33:50;;;;;;;;;;;;;;;;;;5043470;28;20599;-84
2023/08/10 12:36:16;;;;;;;;;;;;;;;;;;5057983;28;20504;-85
2023/08/10 12:38:42;;;;;;;;;;;;;;;;;;5060485;28;20015;-85
2023/08/10 12:41:08;;;;;;;;;;;;;;;;;;5059755;28;19932;-85
2023/08/10 12:43:34;;;;;;;;;;;;;;;;;;5060502;28;20101;-84
2023/08/10 12:46:00;;;;;;;;;;;;;;;;;;5066468;28;19928;-85
2023/08/10 12:48:26;;;;;;;;;;;;;;;;;;5060280;28;19928;-84
2023/08/10 12:50:52;;;;;;;;;;;;;;;;;;5059131;28;19951;-84
2023/08/10 12:53:18;;;;;;;;;;;;;;;;;;5067938;28;20301;-86
2023/08/10 12:55:44;;;;;;;;;;;;;;;;;;5057664;28;20372;-84
2023/08/10 12:58:14;;;;;;;;;;;;;;;;;;5060610;28;19936;-85
2023/08/10 13:00:40;;;;;;;;;;;;;;;;;;5059484;28;19929;-84
2023/08/10 13:03:06;;;;;;;;;;;;;;;;;;5047462;28;19936;-84
2023/08/10 13:05:32;;;;;;;;;;;;;;;;;;5064314;28;19928;-84
2023/08/10 13:07:58;;;;;;;;;;;;;;;;;;5058851;28;20017;-84
2023/08/10 13:10:24;;;;;;;;;;;;;;;;;;5049946;28;19924;-84
2023/08/10 13:12:51;;;;;;;;;;;;;;;;;;5057586;28;19928;-84
2023/08/10 13:15:17;;;;;;;;;;;;;;;;;;5042332;28;19929;-84
2023/08/10 13:17:43;;;;;;;;;;;;;;;;;;5060701;28;19924;-84
2023/08/10 13:20:11;;;;;;;;;;;;;;;;;;5058458;28;19932;-84
2023/08/10 13:22:37;;;;;;;;;;;;;;;;;;5040731;28;19956;-85
2023/08/10 13:25:06;;;;;;;;;;;;;;;;;;5051673;28;19999;-85
2023/08/10 13:27:32;;;;;;;;;;;;;;;;;;5060533;28;19929;-83
2023/08/10 13:29:58;;;;;;;;;;;;;;;;;;5062153;28;19932;-84
2023/08/10 13:32:23;;;;;;;;;;;;;;;;;;5059661;28;19951;-84
2023/08/10 13:34:49;;;;;;;;;;;;;;;;;;5059010;28;20946;-83
2023/08/10 13:37:15;;;;;;;;;;;;;;;;;;5059589;28;19928;-84
2023/08/10 13:39:41;;;;;;;;;;;;;;;;;;5058009;28;19935;-83
2023/08/10 13:42:07;;;;;;;;;;;;;;;;;;5053731;28;20379;-84
2023/08/10 13:44:33;;;;;;;;;;;;;;;;;;5063291;28;20362;-84
2023/08/10 13:47:00;;;;;;;;;;;;;;;;;;5062137;28;20291;-83
2023/08/10 13:49:26;;;;;;;;;;;;;;;;;;5067176;28;19932;-83
2023/08/10 13:51:52;;;;;;;;;;;;;;;;;;5060846;28;19940;-83
2023/08/10 13:54:18;;;;;;;;;;;;;;;;;;5064105;28;19975;-84
2023/08/10 13:56:44;;;;;;;;;;;;;;;;;;5062012;28;19939;-84
2023/08/10 13:59:10;;;;;;;;;;;;;;;;;;5055621;28;19929;-85
2023/08/10 14:01:36;;;;;;;;;;;;;;;;;;5047629;28;19974;-84
2023/08/10 14:04:01;;;;;;;;;;;;;;;;;;5062310;28;19929;-83
2023/08/10 14:06:27;;;;;;;;;;;;;;;;;;5063347;28;19940;-83
2023/08/10 14:08:54;;;;;;;;;;;;;;;;;;5063822;28;19932;-83
2023/08/10 14:11:20;;;;;;;;;;;;;;;;;;5063524;28;19986;-83
2023/08/10 14:13:45;;;;;;;;;;;;;;;;;;5061723;28;20352;-83
2023/08/10 14:16:11;;;;;;;;;;;;;;;;;;5062508;28;19974;-84
2023/08/10 14:18:37;;;;;;;;;;;;;;;;;;5062784;28;19928;-85
2023/08/10 14:21:03;;;;;;;;;;;;;;;;;;5044983;28;19928;-84
2023/08/10 14:23:29;;;;;;;;;;;;;;;;;;5045241;28;20431;-84
2023/08/10 14:25:55;;;;;;;;;;;;;;;;;;5047788;28;20206;-83
2023/08/10 14:28:21;;;;;;;;;;;;;;;;;;5067059;28;19928;-84
2023/08/10 14:30:47;;;;;;;;;;;;;;;;;;5066353;28;19924;-83
2023/08/10 14:33:13;;;;;;;;;;;;;;;;;;5066881;28;19928;-83
2023/08/10 14:35:39;;;;;;;;;;;;;;;;;;5061762;28;19935;-84
2023/08/10 14:38:05;;;;;;;;;;;;;;;;;;5060299;28;19928;-84
2023/08/10 14:40:31;;;;;;;;;;;;;;;;;;5036554;28;20276;-85
2023/08/10 14:42:56;;;;;;;;;;;;;;;;;;5041196;28;19940;-84
2023/08/10 14:45:22;;;;;;;;;;;;;;;;;;5062021;28;19925;-84
2023/08/10 14:47:48;;;;;;;;;;;;;;;;;;5060676;28;20540;-84
2023/08/10 14:50:17;;;;;;;;;;;;;;;;;;5062432;28;19966;-84
2023/08/10 14:52:43;;;;;;;;;;;;;;;;;;5062465;28;19929;-83
2023/08/10 14:55:09;;;;;;;;;;;;;;;;;;5060940;28;20693;-83
2023/08/10 14:57:35;;;;;;;;;;;;;;;;;;5041074;28;20754;-83
2023/08/10 15:00:01;;;;;;;;;;;;;;;;;;5042518;28;20680;-83
2023/08/10 15:02:28;;;;;;;;;;;;;;;;;;5064077;28;19936;-83
2023/08/10 15:04:54;;;;;;;;;;;;;;;;;;5059372;28;20416;-83
2023/08/10 15:07:20;;;;;;;;;;;;;;;;;;5060178;28;19933;-83
2023/08/10 15:09:46;;;;;;;;;;;;;;;;;;5046128;28;19935;-83
2023/08/10 15:12:13;;;;;;;;;;;;;;;;;;5059630;28;19989;-84
2023/08/10 15:14:39;;;;;;;;;;;;;;;;;;5059418;28;19954;-84
2023/08/10 15:17:05;;;;;;;;;;;;;;;;;;5059214;28;19989;-84
2023/08/10 15:19:31;;;;;;;;;;;;;;;;;;5058082;28;19935;-85
2023/08/10 15:21:57;;;;;;;;;;;;;;;;;;5037083;28;20244;-87
2023/08/10 15:24:23;;;;;;;;;;;;;;;;;;5058956;28;19929;-84
2023/08/10 15:26:49;;;;;;;;;;;;;;;;;;5056128;28;19975;-84
2023/08/10 15:29:14;;;;;;;;;;;;;;;;;;5056675;28;20437;-84
2023/08/10 15:31:40;;;;;;;;;;;;;;;;;;5059598;28;19928;-84
2023/08/10 15:34:07;;;;;;;;;;;;;;;;;;5040650;28;20429;-86
2023/08/10 15:36:36;;;;;;;;;;;;;;;;;;5046894;28;19947;-90
2023/08/10 15:39:02;;;;;;;;;;;;;;;;;;5055687;28;19935;-88
2023/08/10 15:41:28;;;;;;;;;;;;;;;;;;5043064;28;19917;-85
2023/08/10 15:43:54;;;;;;;;;;;;;;;;;;5054202;28;19932;-85
2023/08/10 15:46:20;;;;;;;;;;;;;;;;;;5039238;28;19978;-86
2023/08/10 15:48:46;;;;;;;;;;;;;;;;;;5055132;28;19932;-86
2023/08/10 15:51:12;;;;;;;;;;;;;;;;;;5054881;28;19941;-86
2023/08/10 15:53:38;;;;;;;;;;;;;;;;;;5041036;28;19924;-84
2023/08/10 15:56:04;;;;;;;;;;;;;;;;;;5036044;28;19955;-86
2023/08/10 15:58:30;;;;;;;;;;;;;;;;;;5054581;28;20392;-86
2023/08/10 16:00:56;;;;;;;;;;;;;;;;;;5054208;28;19939;-87
2023/08/10 16:03:22;;;;;;;;;;;;;;;;;;5034202;28;19928;-86
2023/08/10 16:05:48;;;;;;;;;;;;;;;;;;5054910;28;19921;-85
2023/08/10 16:08:14;;;;;;;;;;;;;;;;;;5054521;28;20447;-86
2023/08/10 16:10:43;;;;;;;;;;;;;;;;;;5039713;28;19935;-86
2023/08/10 16:13:09;;;;;;;;;;;;;;;;;;5054333;28;19932;-86
2023/08/10 16:15:35;;;;;;;;;;;;;;;;;;5053361;28;20299;-86
2023/08/10 16:18:00;;;;;;;;;;;;;;;;;;5055433;28;20392;-85
2023/08/10 16:20:27;;;;;;;;;;;;;;;;;;5034464;28;20425;-86
2023/08/10 16:22:53;;;;;;;;;;;;;;;;;;5052663;28;19967;-86
2023/08/10 16:25:18;;;;;;;;;;;;;;;;;;5040876;28;20033;-85
2023/08/10 16:27:44;;;;;;;;;;;;;;;;;;5053310;28;19985;-86
2023/08/10 16:30:11;;;;;;;;;;;;;;;;;;5036465;28;19939;-85
2023/08/10 16:32:37;;;;;;;;;;;;;;;;;;5037828;28;19928;-85
2023/08/10 16:35:03;;;;;;;;;;;;;;;;;;5037189;28;20331;-85
2023/08/10 16:37:28;;;;;;;;;;;;;;;;;;5057296;28;19928;-85
2023/08/10 16:39:55;;;;;;;;;;;;;;;;;;5057153;28;21187;-86